Time;durP1;ratioP1;P1;durP2;ratioP2;P2;SDS_P1;SDS_P2;PMS_P1;PMS_P2;Temp;Humidity;BMP_temperature;BMP_pressure;BME280_temperature;BME280_humidity;BME280_pressure;Samples;Min_cycle;Max_cycle;Signal;HPM_P1;HPM_P2
2021/10/24 00:01:22;;;;;;;15.70;10.32;;;9.10;99.90;;;;;;5041505;28;20048;-80
2021/10/24 00:03:48;;;;;;;12.50;10.10;;;9.00;99.90;;;;;;5039928;28;20057;-82
2021/10/24 00:06:14;;;;;;;18.38;10.35;;;9.00;99.90;;;;;;5039029;28;20141;-82
2021/10/24 00:08:39;;;;;;;14.88;10.38;;;8.90;99.90;;;;;;5055871;28;20048;-82
2021/10/24 00:11:06;;;;;;;16.23;11.18;;;8.90;99.90;;;;;;5037083;28;20071;-82
2021/10/24 00:13:32;;;;;;;16.15;10.65;;;8.80;99.90;;;;;;5040628;28;20112;-82
2021/10/24 00:15:59;;;;;;;16.20;10.15;;;8.80;99.90;;;;;;5041266;28;20055;-81
2021/10/24 00:18:25;;;;;;;14.20;10.77;;;8.70;99.90;;;;;;5055572;28;20037;-82
2021/10/24 00:20:53;;;;;;;15.63;10.27;;;8.70;99.90;;;;;;5040963;28;20059;-82
2021/10/24 00:23:19;;;;;;;14.18;10.45;;;8.80;99.90;;;;;;5038548;28;21176;-82
2021/10/24 00:25:46;;;;;;;17.23;10.25;;;8.70;99.90;;;;;;5040175;28;20040;-82
2021/10/24 00:28:12;;;;;;;18.13;10.27;;;8.70;99.90;;;;;;5024772;28;20049;-82
2021/10/24 00:30:38;;;;;;;16.23;11.38;;;8.60;99.90;;;;;;5042752;28;20110;-82
2021/10/24 00:33:05;;;;;;;17.00;10.40;;;8.70;99.90;;;;;;5042724;28;20049;-82
2021/10/24 00:35:31;;;;;;;14.32;10.35;;;8.60;99.90;;;;;;5042328;28;20091;-81
2021/10/24 00:37:57;;;;;;;19.98;11.13;;;8.60;99.90;;;;;;5040143;28;20045;-81
2021/10/24 00:40:23;;;;;;;14.07;11.10;;;8.60;99.90;;;;;;5041211;28;20060;-83
2021/10/24 00:42:51;;;;;;;19.10;11.23;;;8.60;99.90;;;;;;5043323;28;20037;-82
2021/10/24 00:45:17;;;;;;;17.58;10.02;;;8.50;99.90;;;;;;5044200;28;20052;-82
2021/10/24 00:47:44;;;;;;;16.67;9.93;;;8.50;99.90;;;;;;5040868;28;20152;-82
2021/10/24 00:50:10;;;;;;;16.65;9.35;;;8.50;99.90;;;;;;5044134;28;20045;-80
2021/10/24 00:52:36;;;;;;;14.10;10.02;;;8.50;99.90;;;;;;5041212;28;20090;-80
2021/10/24 00:55:03;;;;;;;14.35;9.93;;;8.40;99.90;;;;;;5042719;28;20090;-82
2021/10/24 00:57:29;;;;;;;20.48;9.80;;;8.40;99.90;;;;;;5042342;28;20194;-83
2021/10/24 00:59:55;;;;;;;18.55;11.15;;;8.50;99.90;;;;;;5042268;28;20112;-83
2021/10/24 01:02:21;;;;;;;14.57;9.73;;;8.30;99.90;;;;;;5039586;28;20039;-82
2021/10/24 01:04:47;;;;;;;16.77;10.43;;;8.30;99.90;;;;;;5041645;28;20041;-81
2021/10/24 01:07:17;;;;;;;13.88;9.70;;;8.20;99.90;;;;;;5046393;28;20056;-80
2021/10/24 01:09:44;;;;;;;12.25;9.90;;;8.20;99.90;;;;;;5047422;28;20494;-80
2021/10/24 01:12:10;;;;;;;13.30;9.98;;;8.40;99.90;;;;;;5041037;28;20053;-81
2021/10/24 01:14:35;;;;;;;18.40;10.32;;;8.10;99.90;;;;;;5042625;28;20212;-80
2021/10/24 01:17:01;;;;;;;23.25;10.55;;;8.00;99.90;;;;;;5040920;28;20044;-82
2021/10/24 01:19:27;;;;;;;12.07;9.82;;;8.00;99.90;;;;;;5042782;28;20037;-82
2021/10/24 01:21:52;;;;;;;14.80;10.65;;;8.00;99.90;;;;;;5037058;28;20533;-83
2021/10/24 01:24:18;;;;;;;13.88;9.60;;;8.00;99.90;;;;;;5025521;28;20040;-83
2021/10/24 01:26:44;;;;;;;19.83;10.30;;;7.90;99.90;;;;;;5041801;28;20041;-83
2021/10/24 01:29:11;;;;;;;17.05;10.73;;;7.90;99.90;;;;;;5039124;28;20037;-81
2021/10/24 01:31:37;;;;;;;16.75;11.05;;;7.80;99.90;;;;;;5039875;28;20554;-82
2021/10/24 01:34:04;;;;;;;15.50;10.65;;;7.90;99.90;;;;;;5042295;28;20045;-82
2021/10/24 01:36:30;;;;;;;15.32;10.75;;;7.80;99.90;;;;;;5037837;28;20036;-80
2021/10/24 01:38:56;;;;;;;19.67;10.73;;;7.80;99.90;;;;;;5039679;28;20037;-82
2021/10/24 01:41:24;;;;;;;27.95;10.73;;;7.70;99.90;;;;;;5039292;28;20040;-82
2021/10/24 01:43:51;;;;;;;15.55;11.00;;;7.80;99.90;;;;;;5040432;28;20855;-82
2021/10/24 01:46:17;;;;;;;18.85;11.63;;;7.80;99.90;;;;;;5043446;28;20045;-82
2021/10/24 01:48:44;;;;;;;22.65;11.38;;;7.70;99.90;;;;;;5039154;28;20581;-83
2021/10/24 01:51:11;;;;;;;17.30;10.88;;;7.70;99.90;;;;;;5039972;28;20152;-82
2021/10/24 01:53:42;;;;;;;15.35;10.43;;;7.70;99.90;;;;;;5036799;28;20100;-82
2021/10/24 01:56:09;;;;;;;20.40;10.73;;;7.70;99.90;;;;;;5040279;28;20042;-82
2021/10/24 01:58:36;;;;;;;16.92;11.80;;;7.60;99.90;;;;;;5055063;28;20045;-80
2021/10/24 02:01:03;;;;;;;22.80;10.45;;;7.60;99.90;;;;;;5040236;28;20128;-82
2021/10/24 02:03:29;;;;;;;17.38;10.90;;;7.50;99.90;;;;;;5039599;28;20048;-82
2021/10/24 02:05:55;;;;;;;18.30;10.27;;;7.50;99.90;;;;;;5039732;28;20045;-82
2021/10/24 02:08:21;;;;;;;17.23;11.75;;;7.50;99.90;;;;;;5043610;28;20072;-82
2021/10/24 02:10:47;;;;;;;16.25;11.32;;;7.50;99.90;;;;;;5040996;28;20029;-82
2021/10/24 02:13:13;;;;;;;18.58;10.68;;;7.50;99.90;;;;;;5044964;28;20109;-82
2021/10/24 02:15:40;;;;;;;16.90;10.35;;;7.50;99.90;;;;;;5041012;28;20527;-80
2021/10/24 02:18:07;;;;;;;18.67;11.73;;;7.50;99.90;;;;;;5040681;28;20044;-82
2021/10/24 02:20:34;;;;;;;22.48;11.15;;;7.30;99.90;;;;;;5039696;28;20041;-80
2021/10/24 02:23:01;;;;;;;18.65;11.25;;;7.40;99.90;;;;;;5027334;28;20101;-80
2021/10/24 02:25:28;;;;;;;19.23;11.23;;;7.40;99.90;;;;;;5043825;28;20053;-82
2021/10/24 02:27:54;;;;;;;20.67;11.48;;;7.30;99.90;;;;;;5047236;28;20040;-82
2021/10/24 02:30:19;;;;;;;21.83;11.38;;;7.20;99.90;;;;;;5048910;28;20041;-81
2021/10/24 02:32:45;;;;;;;15.98;11.27;;;7.40;99.90;;;;;;5046275;28;20045;-82
2021/10/24 02:35:13;;;;;;;19.83;11.63;;;7.20;99.90;;;;;;5047407;28;20056;-83
2021/10/24 02:37:40;;;;;;;20.45;11.82;;;7.20;99.90;;;;;;5028382;28;20500;-82
2021/10/24 02:40:06;;;;;;;18.75;11.68;;;7.20;99.90;;;;;;5047448;28;20500;-81
2021/10/24 02:42:32;;;;;;;19.77;11.18;;;7.10;99.90;;;;;;5049632;28;20448;-81
2021/10/24 02:44:58;;;;;;;22.48;11.60;;;7.10;99.90;;;;;;5046201;28;20060;-82
2021/10/24 02:47:23;;;;;;;19.45;11.35;;;7.10;99.90;;;;;;5052185;28;20377;-82
2021/10/24 02:49:53;;;;;;;32.90;13.55;;;7.10;99.90;;;;;;5054368;28;20662;-81
2021/10/24 02:52:19;;;;;;;16.75;11.82;;;7.00;99.90;;;;;;5034559;28;20045;-82
2021/10/24 02:54:45;;;;;;;19.55;12.70;;;7.00;99.90;;;;;;5052181;28;20395;-82
2021/10/24 02:57:10;;;;;;;20.65;13.68;;;6.90;99.90;;;;;;5049196;28;20037;-80
2021/10/24 02:59:36;;;;;;;17.30;11.98;;;6.90;99.90;;;;;;5045118;28;20515;-82
2021/10/24 03:02:03;;;;;;;23.63;14.15;;;6.90;99.90;;;;;;5045984;28;20496;-82
2021/10/24 03:04:29;;;;;;;21.50;12.77;;;6.80;99.90;;;;;;5047021;28;20083;-82
2021/10/24 03:06:55;;;;;;;17.95;13.10;;;6.80;99.90;;;;;;5030664;28;20041;-80
2021/10/24 03:09:21;;;;;;;20.00;13.23;;;6.80;99.90;;;;;;5051878;28;20052;-79
2021/10/24 03:11:47;;;;;;;18.75;11.50;;;6.90;99.90;;;;;;5075955;28;20040;-79
2021/10/24 03:14:13;;;;;;;24.90;13.50;;;6.70;99.90;;;;;;5065949;28;20049;-79
2021/10/24 03:16:40;;;;;;;17.42;11.90;;;6.70;99.90;;;;;;5076761;28;20083;-82
2021/10/24 03:19:05;;;;;;;22.50;12.40;;;6.70;99.90;;;;;;5043734;28;20047;-82
2021/10/24 03:21:31;;;;;;;20.88;12.82;;;6.80;99.90;;;;;;5052293;28;20097;-81
2021/10/24 03:24:01;;;;;;;17.58;12.75;;;6.80;99.90;;;;;;5049148;28;20044;-81
2021/10/24 03:26:30;;;;;;;18.23;12.38;;;6.80;99.90;;;;;;5055725;28;20479;-82
2021/10/24 03:28:56;;;;;;;18.02;12.45;;;6.70;99.90;;;;;;5050611;28;20068;-81
2021/10/24 03:31:22;;;;;;;18.60;13.45;;;6.60;99.90;;;;;;5050044;28;20044;-81
2021/10/24 03:33:49;;;;;;;19.88;12.93;;;6.60;99.90;;;;;;5052543;28;20079;-82
2021/10/24 03:36:15;;;;;;;21.73;14.27;;;6.70;99.90;;;;;;5049225;28;20040;-82
2021/10/24 03:38:42;;;;;;;22.23;15.13;;;6.60;99.90;;;;;;5049201;28;20041;-81
2021/10/24 03:41:08;;;;;;;22.10;14.75;;;6.60;99.90;;;;;;5047771;28;20064;-82
2021/10/24 03:43:33;;;;;;;25.95;14.82;;;6.60;99.90;;;;;;5048441;28;20495;-82
2021/10/24 03:46:02;;;;;;;22.52;13.60;;;6.60;99.90;;;;;;5046546;28;20045;-80
2021/10/24 03:48:28;;;;;;;20.38;14.27;;;6.50;99.90;;;;;;5036857;28;20479;-83
2021/10/24 03:50:54;;;;;;;20.88;13.93;;;6.50;99.90;;;;;;5036418;28;20121;-82
2021/10/24 03:53:21;;;;;;;18.45;13.77;;;6.50;99.90;;;;;;5034246;28;20462;-82
2021/10/24 03:55:47;;;;;;;20.50;13.48;;;6.50;99.90;;;;;;5047927;28;20052;-82
2021/10/24 03:58:14;;;;;;;23.30;13.38;;;6.40;99.90;;;;;;5045620;28;20048;-81
2021/10/24 04:00:43;;;;;;;21.23;14.70;;;6.40;99.90;;;;;;5048631;28;20123;-82
2021/10/24 04:03:09;;;;;;;19.88;13.23;;;6.40;99.90;;;;;;5045826;28;20045;-82
2021/10/24 04:05:38;;;;;;;17.88;12.30;;;6.80;99.90;;;;;;5036432;28;20049;-81
2021/10/24 04:08:05;;;;;;;16.38;13.30;;;6.40;99.90;;;;;;5043537;28;20476;-82
2021/10/24 04:10:31;;;;;;;18.38;12.25;;;6.40;99.90;;;;;;5050918;28;20043;-82
2021/10/24 04:12:59;;;;;;;21.02;12.30;;;6.30;99.90;;;;;;5050037;28;20039;-82
2021/10/24 04:15:25;;;;;;;18.70;12.82;;;6.30;99.90;;;;;;5052415;28;20024;-82
2021/10/24 04:17:51;;;;;;;20.65;12.48;;;6.40;99.90;;;;;;5032166;28;20425;-81
2021/10/24 04:20:19;;;;;;;18.13;13.07;;;6.60;99.90;;;;;;5045251;28;20094;-82
2021/10/24 04:22:45;;;;;;;18.80;12.48;;;6.20;99.90;;;;;;5049064;28;20053;-82
2021/10/24 04:25:12;;;;;;;19.25;13.50;;;6.20;99.90;;;;;;5052177;28;20033;-82
2021/10/24 04:27:39;;;;;;;21.08;13.30;;;6.20;99.90;;;;;;5046382;28;20041;-82
2021/10/24 04:30:08;;;;;;;19.10;13.40;;;6.20;99.90;;;;;;5034988;28;20049;-82
2021/10/24 04:32:34;;;;;;;17.35;12.32;;;6.20;99.90;;;;;;5048751;28;20048;-83
2021/10/24 04:35:00;;;;;;;16.60;13.15;;;6.10;99.90;;;;;;5048033;28;20036;-82
2021/10/24 04:37:26;;;;;;;17.85;12.77;;;6.20;99.90;;;;;;5028964;28;20045;-82
2021/10/24 04:39:51;;;;;;;19.58;12.90;;;6.10;99.90;;;;;;5045169;28;20048;-82
2021/10/24 04:42:17;;;;;;;19.65;12.52;;;6.20;99.90;;;;;;5046344;28;20051;-82
2021/10/24 04:44:43;;;;;;;19.00;12.75;;;6.10;99.90;;;;;;5029480;28;20499;-81
2021/10/24 04:47:09;;;;;;;18.55;13.43;;;6.00;99.90;;;;;;5032062;28;20047;-82
2021/10/24 04:49:35;;;;;;;20.92;12.93;;;6.00;99.90;;;;;;5047610;28;20115;-81
2021/10/24 04:52:00;;;;;;;17.08;12.63;;;5.90;99.90;;;;;;5047559;28;20033;-82
2021/10/24 04:54:26;;;;;;;18.55;12.75;;;6.00;99.90;;;;;;5047041;28;20064;-82
2021/10/24 04:56:55;;;;;;;17.15;12.50;;;5.90;99.90;;;;;;5049147;28;20036;-82
2021/10/24 04:59:23;;;;;;;18.90;13.88;;;5.90;99.90;;;;;;5044151;28;20033;-82
2021/10/24 05:01:49;;;;;;;14.95;12.07;;;5.90;99.90;;;;;;5029743;28;20065;-82
2021/10/24 05:04:16;;;;;;;17.65;13.32;;;5.90;99.90;;;;;;5048966;28;20057;-82
2021/10/24 05:06:42;;;;;;;19.90;13.50;;;5.90;99.90;;;;;;5046012;28;20050;-81
2021/10/24 05:09:07;;;;;;;18.98;13.30;;;5.90;99.90;;;;;;5025460;28;20554;-82
2021/10/24 05:11:35;;;;;;;16.30;13.32;;;6.00;99.90;;;;;;5031371;28;20038;-83
2021/10/24 05:14:03;;;;;;;19.27;14.30;;;5.90;99.90;;;;;;5042111;28;20099;-83
2021/10/24 05:16:29;;;;;;;18.88;13.70;;;5.90;99.90;;;;;;5041531;28;20040;-82
2021/10/24 05:18:54;;;;;;;17.63;12.73;;;6.20;99.90;;;;;;5042904;28;20029;-82
2021/10/24 05:21:20;;;;;;;17.80;13.27;;;5.80;99.90;;;;;;5044140;28;20092;-80
2021/10/24 05:23:46;;;;;;;18.10;14.07;;;5.80;99.90;;;;;;5042839;28;20103;-82
2021/10/24 05:26:13;;;;;;;20.55;13.68;;;5.80;99.90;;;;;;5040599;28;20083;-82
2021/10/24 05:28:40;;;;;;;18.48;13.23;;;5.80;99.90;;;;;;5023553;28;20398;-82
2021/10/24 05:31:05;;;;;;;20.65;13.75;;;5.90;99.90;;;;;;5041188;28;20037;-80
2021/10/24 05:33:31;;;;;;;17.23;13.10;;;5.90;99.90;;;;;;5041583;28;20114;-80
2021/10/24 05:35:56;;;;;;;18.48;13.18;;;5.70;99.90;;;;;;5038742;28;20617;-82
2021/10/24 05:38:22;;;;;;;16.85;12.02;;;5.70;99.90;;;;;;5043831;28;20377;-81
2021/10/24 05:40:49;;;;;;;15.63;12.73;;;5.70;99.90;;;;;;5043602;28;20494;-81
2021/10/24 05:43:15;;;;;;;19.88;12.88;;;5.70;99.90;;;;;;5027612;28;20037;-82
2021/10/24 05:45:44;;;;;;;25.00;13.48;;;5.60;99.90;;;;;;5043096;28;20072;-80
2021/10/24 05:48:11;;;;;;;17.90;12.88;;;5.70;99.90;;;;;;5026612;28;20060;-79
2021/10/24 05:50:37;;;;;;;18.50;12.48;;;5.60;99.90;;;;;;5043405;28;20041;-82
2021/10/24 05:53:04;;;;;;;17.33;13.00;;;5.60;99.90;;;;;;5047745;28;20041;-81
2021/10/24 05:55:29;;;;;;;20.25;12.95;;;5.60;99.90;;;;;;5043768;28;20025;-82
2021/10/24 05:57:56;;;;;;;16.58;12.43;;;5.60;99.90;;;;;;5037520;28;20128;-82
2021/10/24 06:00:22;;;;;;;18.75;12.80;;;6.50;99.90;;;;;;5026253;28;20136;-82
2021/10/24 06:02:48;;;;;;;21.60;13.60;;;5.60;99.90;;;;;;5041990;28;20052;-80
2021/10/24 06:05:13;;;;;;;15.68;12.23;;;5.60;99.90;;;;;;5043690;28;20040;-80
2021/10/24 06:07:39;;;;;;;19.00;12.70;;;5.60;99.90;;;;;;5038883;28;20107;-80
2021/10/24 06:10:22;;;;;;;21.23;12.93;;;5.60;99.90;;;;;;5039215;28;20037;-82
2021/10/24 06:12:53;;;;;;;18.23;13.35;;;5.60;99.90;;;;;;5040103;28;20037;-82
2021/10/24 06:15:20;;;;;;;22.95;14.23;;;5.60;99.90;;;;;;5043812;28;20061;-83
2021/10/24 06:17:47;;;;;;;15.50;11.23;;;5.60;99.90;;;;;;5042937;28;20053;-80
2021/10/24 06:20:14;;;;;;;18.63;13.02;;;5.70;99.90;;;;;;5029862;28;20041;-82
2021/10/24 06:22:40;;;;;;;24.15;14.95;;;5.60;99.90;;;;;;5045279;28;20063;-80
2021/10/24 06:25:07;;;;;;;19.35;12.75;;;5.90;99.90;;;;;;5045297;28;20045;-80
2021/10/24 06:27:36;;;;;;;20.38;12.68;;;5.20;99.90;;;;;;5043256;28;20056;-80
2021/10/24 06:30:08;;;;;;;18.05;13.55;;;5.70;99.90;;;;;;5046283;28;20614;-80
2021/10/24 06:32:34;;;;;;;18.38;12.23;;;5.60;99.90;;;;;;5029456;28;20424;-82
2021/10/24 06:35:01;;;;;;;18.35;11.85;;;5.60;99.90;;;;;;5032762;28;20032;-82
2021/10/24 06:37:35;;;;;;;18.98;13.32;;;5.60;99.90;;;;;;5048807;28;20037;-80
2021/10/24 06:40:03;;;;;;;16.08;12.15;;;5.70;99.90;;;;;;5049197;28;20088;-82
2021/10/24 06:42:28;;;;;;;20.25;13.43;;;5.70;99.90;;;;;;5049129;28;20048;-82
2021/10/24 06:44:54;;;;;;;19.15;12.88;;;5.70;99.90;;;;;;5051989;28;20040;-82
2021/10/24 06:47:20;;;;;;;22.67;13.88;;;5.70;99.90;;;;;;5029784;28;20406;-81
2021/10/24 06:49:46;;;;;;;20.92;12.80;;;5.70;99.90;;;;;;5048063;28;20120;-81
2021/10/24 06:52:11;;;;;;;18.33;13.82;;;5.70;99.90;;;;;;5047217;28;20037;-83
2021/10/24 06:54:37;;;;;;;19.42;13.40;;;5.70;99.90;;;;;;5052027;28;20037;-82
2021/10/24 06:57:05;;;;;;;19.30;14.10;;;5.80;99.90;;;;;;5043963;28;20045;-83
2021/10/24 06:59:31;;;;;;;19.13;13.23;;;5.90;99.90;;;;;;5047936;28;20570;-83
2021/10/24 07:01:56;;;;;;;18.77;13.43;;;5.90;99.90;;;;;;5048544;28;20072;-82
2021/10/24 07:04:22;;;;;;;20.17;12.80;;;5.80;99.90;;;;;;5045699;28;20037;-83
2021/10/24 07:06:47;;;;;;;17.50;12.77;;;5.80;99.90;;;;;;5048586;28;20041;-82
2021/10/24 07:09:13;;;;;;;19.77;12.90;;;5.80;99.90;;;;;;5047277;28;20415;-82
2021/10/24 07:11:40;;;;;;;18.75;12.95;;;6.00;99.90;;;;;;5049027;28;20292;-81
2021/10/24 07:14:10;;;;;;;19.05;13.82;;;6.10;99.90;;;;;;5052275;28;20057;-81
2021/10/24 07:16:36;;;;;;;19.58;12.80;;;5.90;99.90;;;;;;5029461;28;20104;-82
2021/10/24 07:19:01;;;;;;;16.33;12.15;;;6.00;99.90;;;;;;5045288;28;20045;-82
2021/10/24 07:21:27;;;;;;;16.25;12.00;;;6.00;99.90;;;;;;5043675;28;20072;-82
2021/10/24 07:24:08;;;;;;;19.77;12.95;;;6.20;99.90;;;;;;5035986;28;21987;-84
2021/10/24 07:26:34;;;;;;;21.58;12.10;;;6.30;99.90;;;;;;5043250;28;20052;-80
2021/10/24 07:29:00;;;;;;;18.52;12.15;;;6.20;99.90;;;;;;5040497;28;20048;-83
2021/10/24 07:31:26;;;;;;;19.17;12.35;;;6.40;99.90;;;;;;5044081;28;20045;-82
2021/10/24 07:33:52;;;;;;;16.30;12.32;;;6.30;99.90;;;;;;5040278;28;20041;-84
2021/10/24 07:36:18;;;;;;;18.05;12.35;;;6.40;99.90;;;;;;5027596;28;20144;-83
2021/10/24 07:38:44;;;;;;;20.27;11.25;;;6.40;99.90;;;;;;5043022;28;20108;-82
2021/10/24 07:41:10;;;;;;;16.20;11.77;;;6.50;99.90;;;;;;5044732;28;20060;-81
2021/10/24 07:43:35;;;;;;;19.50;11.95;;;6.50;99.90;;;;;;5041979;28;20044;-79
2021/10/24 07:46:01;;;;;;;17.70;11.95;;;6.60;99.90;;;;;;5042231;28;20039;-82
2021/10/24 07:48:27;;;;;;;16.27;11.55;;;6.60;99.90;;;;;;5040963;28;20033;-82
2021/10/24 07:50:52;;;;;;;20.55;11.57;;;6.60;99.90;;;;;;5039313;28;20782;-83
2021/10/24 07:53:26;;;;;;;13.95;11.35;;;6.80;99.90;;;;;;5042038;28;20049;-82
2021/10/24 07:55:53;;;;;;;16.52;11.05;;;6.80;99.90;;;;;;5036662;28;20042;-81
2021/10/24 07:58:19;;;;;;;20.02;12.95;;;6.90;99.90;;;;;;5025985;28;20507;-81
2021/10/24 08:00:45;;;;;;;18.33;11.18;;;6.90;99.90;;;;;;5042065;28;20080;-82
2021/10/24 08:03:10;;;;;;;18.23;11.43;;;7.00;99.90;;;;;;5039136;28;20072;-83
2021/10/24 08:05:40;;;;;;;16.55;10.70;;;7.10;99.90;;;;;;5042111;28;20037;-82
2021/10/24 08:08:09;;;;;;;19.30;11.18;;;7.10;99.90;;;;;;5024191;28;20540;-82
2021/10/24 08:10:35;;;;;;;14.32;10.50;;;7.20;99.90;;;;;;5039492;28;20098;-82
2021/10/24 08:13:00;;;;;;;16.00;11.07;;;7.30;99.90;;;;;;5039638;28;20077;-81
2021/10/24 08:15:29;;;;;;;14.52;10.18;;;7.30;99.90;;;;;;5025616;28;20052;-82
2021/10/24 08:17:56;;;;;;;17.00;11.48;;;7.40;99.90;;;;;;5026941;28;20384;-82
2021/10/24 08:20:28;;;;;;;19.83;10.38;;;7.40;99.90;;;;;;5023741;28;20037;-83
2021/10/24 08:22:55;;;;;;;19.10;11.80;;;7.50;99.90;;;;;;5044620;28;20120;-82
2021/10/24 08:25:24;;;;;;;15.88;10.63;;;7.50;99.90;;;;;;5030682;28;20453;-83
2021/10/24 08:28:03;;;;;;;15.63;10.10;;;7.70;99.90;;;;;;5043835;28;20056;-82
2021/10/24 08:30:29;;;;;;;14.07;9.50;;;7.70;99.90;;;;;;5024847;28;20037;-83
2021/10/24 08:32:58;;;;;;;20.25;9.10;;;7.70;99.90;;;;;;5042048;28;20047;-81
2021/10/24 08:35:34;;;;;;;16.83;10.05;;;7.80;99.90;;;;;;5013420;28;20036;-83
2021/10/24 08:38:03;;;;;;;15.70;10.30;;;7.80;99.90;;;;;;5041828;28;20048;-79
2021/10/24 08:44:43;;;;;;;16.65;9.90;;;8.00;99.90;;;;;;5037768;28;20095;-82
2021/10/24 08:47:48;;;;;;;12.82;9.55;;;8.10;99.90;;;;;;5032236;28;20533;-83
2021/10/24 08:50:23;;;;;;;17.55;9.88;;;8.10;99.90;;;;;;5030098;28;20037;-84
2021/10/24 08:53:28;;;;;;;14.98;9.35;;;8.20;99.90;;;;;;5028338;28;20122;-82
2021/10/24 08:56:45;;;;;;;13.20;8.88;;;8.30;99.90;;;;;;5030908;28;20040;-82
2021/10/24 08:59:55;;;;;;;15.40;9.13;;;8.40;99.90;;;;;;5011546;28;20493;-82
2021/10/24 09:02:48;;;;;;;16.00;9.35;;;9.20;99.90;;;;;;5045249;28;20081;-81
2021/10/24 09:06:09;;;;;;;14.55;9.45;;;8.50;99.90;;;;;;5049368;28;20139;-82
2021/10/24 09:08:41;;;;;;;14.70;9.13;;;8.60;99.90;;;;;;5050874;28;20032;-80
2021/10/24 09:11:21;;;;;;;20.58;11.32;;;8.70;99.90;;;;;;5035295;28;20057;-81
2021/10/24 09:14:50;;;;;;;12.93;8.50;;;8.70;99.90;;;;;;5051928;28;20064;-83
2021/10/24 09:17:36;;;;;;;13.75;8.48;;;8.90;99.90;;;;;;5048766;28;20049;-81
2021/10/24 09:20:06;;;;;;;11.15;8.02;;;8.90;99.90;;;;;;5051891;28;20100;-82
2021/10/24 09:22:36;;;;;;;14.80;8.32;;;9.00;99.90;;;;;;5064535;28;20069;-82
2021/10/24 09:25:12;;;;;;;13.07;7.70;;;9.00;99.90;;;;;;5051834;28;20042;-80
2021/10/24 09:27:44;;;;;;;15.38;8.80;;;9.10;99.90;;;;;;5049198;28;20049;-81
2021/10/24 09:30:11;;;;;;;16.17;9.10;;;9.10;99.90;;;;;;5050043;28;20128;-82
2021/10/24 09:32:46;;;;;;;13.40;7.95;;;9.30;99.90;;;;;;5051802;28;20049;-82
2021/10/24 09:35:14;;;;;;;11.77;7.57;;;9.30;99.90;;;;;;5049687;28;20833;-82
2021/10/24 09:37:45;;;;;;;13.13;8.18;;;9.40;99.90;;;;;;5018279;28;20045;-81
2021/10/24 09:40:11;;;;;;;12.05;7.60;;;9.50;99.90;;;;;;5037591;28;20120;-81
2021/10/24 09:42:37;;;;;;;11.70;8.18;;;9.50;99.90;;;;;;5034892;28;20095;-80
2021/10/24 09:45:05;;;;;;;12.05;7.75;;;9.50;99.90;;;;;;5031359;28;20093;-82
2021/10/24 09:47:38;;;;;;;11.93;8.20;;;9.60;99.90;;;;;;5032417;28;20049;-81
2021/10/24 09:50:06;;;;;;;14.93;8.70;;;9.70;99.90;;;;;;5034533;28;20049;-82
2021/10/24 09:52:33;;;;;;;14.65;8.02;;;9.70;99.90;;;;;;5032250;28;20058;-82
2021/10/24 09:55:00;;;;;;;11.35;7.88;;;9.90;99.90;;;;;;5031435;28;20033;-81
2021/10/24 09:57:29;;;;;;;12.18;6.82;;;9.90;99.90;;;;;;5018794;28;20053;-81
2021/10/24 09:59:59;;;;;;;14.32;7.50;;;10.00;99.90;;;;;;5032717;28;20049;-82
2021/10/24 10:02:25;;;;;;;10.55;6.95;;;10.00;99.90;;;;;;5014082;28;20049;-82
2021/10/24 10:04:50;;;;;;;9.48;6.97;;;10.10;99.90;;;;;;5028015;28;20480;-82
2021/10/24 10:07:17;;;;;;;10.30;7.18;;;10.10;99.90;;;;;;5029194;28;20045;-82
2021/10/24 10:09:58;;;;;;;15.10;7.00;;;10.20;99.90;;;;;;5032296;28;20505;-82
2021/10/24 10:12:26;;;;;;;9.85;6.30;;;10.30;99.90;;;;;;5021277;28;20033;-80
2021/10/24 10:15:00;;;;;;;10.77;7.30;;;10.40;99.90;;;;;;5054664;28;20033;-80
2021/10/24 10:17:31;;;;;;;10.88;7.22;;;10.90;99.90;;;;;;5039932;28;20047;-82
2021/10/24 10:20:35;;;;;;;11.05;7.40;;;10.50;99.90;;;;;;5040292;28;20052;-81
2021/10/24 10:23:04;;;;;;;10.07;6.57;;;10.60;99.90;;;;;;5025731;28;20037;-82
2021/10/24 10:25:31;;;;;;;13.18;6.68;;;10.80;99.90;;;;;;5039835;28;20060;-81
2021/10/24 10:28:11;;;;;;;11.07;6.32;;;10.90;99.90;;;;;;5038830;28;20021;-82
2021/10/24 10:30:45;;;;;;;10.50;6.72;;;11.00;99.90;;;;;;5019939;28;20107;-82
2021/10/24 10:33:56;;;;;;;8.45;6.30;;;11.20;99.90;;;;;;5035685;28;20045;-83
2021/10/24 10:36:59;;;;;;;8.82;6.65;;;11.40;99.90;;;;;;5033528;28;20042;-82
2021/10/24 10:39:31;;;;;;;11.57;6.10;;;11.70;99.90;;;;;;5008482;28;20046;-82
2021/10/24 10:42:07;;;;;;;12.02;6.32;;;11.80;99.90;;;;;;5050276;28;20049;-82
2021/10/24 10:44:34;;;;;;;;;;;12.00;99.90;;;;;;5014857;28;20116;-82
2021/10/24 10:47:42;;;;;;;7.55;4.72;;;12.20;99.90;;;;;;5026448;28;19928;-83
2021/10/24 10:50:38;;;;;;;10.20;5.57;;;12.40;99.90;;;;;;5011181;28;20526;-84
2021/10/24 10:53:30;;;;;;;8.32;5.25;;;12.60;99.90;;;;;;5012541;28;20037;-83
2021/10/24 10:55:56;;;;;;;6.60;4.88;;;12.80;99.90;;;;;;5026125;28;20478;-83
2021/10/24 10:58:52;;;;;;;9.57;5.68;;;12.80;99.90;;;;;;5010348;28;20037;-84
2021/10/24 11:05:41;;;;;;;6.63;4.72;;;13.20;99.90;;;;;;4937510;29;20070;-84
2021/10/24 11:08:44;;;;;;;8.45;4.63;;;13.50;99.90;;;;;;5001633;28;20050;-83
2021/10/24 11:11:10;;;;;;;8.55;4.97;;;13.70;99.90;;;;;;5034304;28;20061;-83
2021/10/24 11:13:49;;;;;;;13.00;5.10;;;14.00;99.90;;;;;;5033025;28;20079;-83
2021/10/24 11:16:40;;;;;;;7.93;4.97;;;14.00;99.90;;;;;;5032264;28;20099;-82
2021/10/24 11:19:28;;;;;;;9.90;4.70;;;14.10;99.90;;;;;;5032496;28;20030;-83
2021/10/24 11:22:02;;;;;;;7.85;4.45;;;14.40;99.90;;;;;;5030501;28;20700;-82
2021/10/24 11:24:49;;;;;;;6.50;5.03;;;14.60;99.90;;;;;;5019184;28;20124;-83
2021/10/24 11:27:19;;;;;;;5.88;4.43;;;14.80;99.90;;;;;;5010300;28;20033;-83
2021/10/24 11:30:24;;;;;;;8.05;4.32;;;14.80;99.90;;;;;;4999980;28;20050;-84
2021/10/24 11:33:00;;;;;;;4.90;4.35;;;14.90;99.90;;;;;;5009168;28;20060;-84
2021/10/24 11:35:33;;;;;;;6.40;4.55;;;15.00;99.90;;;;;;5022320;28;20111;-84
2021/10/24 11:38:03;;;;;;;6.10;4.40;;;15.10;97.50;;;;;;5026753;28;20064;-83
2021/10/24 11:40:38;;;;;;;8.05;3.72;;;15.50;99.30;;;;;;5025195;28;20650;-83
2021/10/24 11:43:13;;;;;;;;;;;;;;;;;;;;;
2021/10/24 11:45:44;;;;;;;8.60;4.20;;;15.30;97.60;;;;;;5006125;28;20050;-83
2021/10/24 11:48:24;;;;;;;8.65;4.25;;;15.30;95.50;;;;;;5026280;28;20427;-84
2021/10/24 11:50:54;;;;;;;7.35;4.22;;;15.40;94.00;;;;;;5001500;28;20049;-84
2021/10/24 11:53:25;;;;;;;6.38;4.97;;;15.30;94.40;;;;;;5017200;28;20577;-83
2021/10/24 11:56:04;;;;;;;8.50;4.68;;;15.30;94.30;;;;;;5024724;28;20082;-84
2021/10/24 12:01:15;;;;;;;8.18;3.97;;;15.60;93.60;;;;;;5024759;28;20057;-83
2021/10/24 12:04:06;;;;;;;5.50;4.40;;;15.20;93.90;;;;;;5024204;28;20057;-84
2021/10/24 12:07:25;;;;;;;11.80;4.80;;;15.20;93.60;;;;;;5026962;28;20046;-84
2021/10/24 12:10:01;;;;;;;8.43;4.70;;;15.10;93.70;;;;;;5007411;28;20134;-83
2021/10/24 12:12:37;;;;;;;10.55;5.25;;;15.30;94.00;;;;;;5022305;28;20048;-82
2021/10/24 12:15:15;;;;;;;9.88;5.45;;;15.30;92.60;;;;;;5023548;28;20069;-84
2021/10/24 12:17:42;;;;;;;9.27;4.72;;;15.10;94.30;;;;;;5043622;28;20041;-83
2021/10/24 12:20:23;;;;;;;9.93;5.35;;;15.10;94.60;;;;;;5024506;28;20455;-84
2021/10/24 12:23:34;;;;;;;9.93;5.25;;;15.10;96.50;;;;;;5010871;28;20049;-84
2021/10/24 12:26:03;;;;;;;7.45;5.47;;;15.20;95.90;;;;;;5010342;28;20091;-83
2021/10/24 12:28:36;;;;;;;10.10;5.97;;;15.10;94.70;;;;;;5026134;28;20045;-84
2021/10/24 12:31:28;;;;;;;9.98;4.90;;;15.10;94.90;;;;;;5024796;28;20046;-84
2021/10/24 12:34:16;;;;;;;10.95;4.05;;;15.00;94.20;;;;;;5039308;28;20049;-85
2021/10/24 12:36:43;;;;;;;11.93;4.90;;;14.50;93.90;;;;;;5025678;28;20033;-84
2021/10/24 12:39:22;;;;;;;9.38;5.55;;;14.70;93.50;;;;;;5028452;28;20048;-85
2021/10/24 12:42:03;;;;;;;9.55;4.28;;;14.90;95.00;;;;;;5001021;28;20045;-85
2021/10/24 12:44:28;;;;;;;8.00;4.30;;;14.70;96.30;;;;;;5088624;23;20219;-65
2021/10/24 12:46:54;;;;;;;6.60;4.30;;;14.70;96.80;;;;;;5041867;28;20541;-65
2021/10/24 12:49:23;;;;;;;9.15;4.35;;;14.70;95.30;;;;;;5045025;28;20487;-65
2021/10/24 12:52:09;;;;;;;7.80;4.78;;;14.70;96.00;;;;;;5045432;28;20041;-65
2021/10/24 12:54:35;;;;;;;9.43;4.60;;;14.60;96.80;;;;;;5042677;28;20136;-65
2021/10/24 12:57:01;;;;;;;11.10;4.75;;;14.60;98.00;;;;;;5029688;28;20142;-64
2021/10/24 12:59:27;;;;;;;8.02;4.43;;;14.60;96.10;;;;;;5046385;28;20075;-65
2021/10/24 13:01:53;;;;;;;7.35;4.75;;;14.50;96.00;;;;;;5046606;28;20072;-65
2021/10/24 13:04:20;;;;;;;8.48;4.78;;;14.50;96.90;;;;;;5046775;28;20119;-65
2021/10/24 13:06:46;;;;;;;14.00;4.72;;;14.40;97.00;;;;;;5045327;28;20056;-65
2021/10/24 13:09:12;;;;;;;5.20;4.25;;;14.40;97.50;;;;;;5046654;28;20045;-65